createdAt,value
2022-12-31T00:01:53.536Z,13.90
2022-12-31T00:04:21.856Z,13.90
2022-12-31T00:06:51.344Z,13.60
2022-12-31T00:09:20.258Z,13.50
2022-12-31T00:11:49.335Z,13.70
2022-12-31T00:14:19.021Z,13.70
2022-12-31T00:16:47.736Z,14.00
2022-12-31T00:19:26.819Z,14.20
2022-12-31T00:21:56.595Z,13.80
2022-12-31T00:24:25.525Z,14.20
2022-12-31T00:26:53.502Z,14.00
2022-12-31T00:29:22.130Z,14.20
2022-12-31T00:31:50.743Z,14.00
2022-12-31T00:34:18.789Z,13.80
2022-12-31T00:36:53.328Z,13.80
2022-12-31T00:39:27.365Z,13.90
2022-12-31T00:41:58.104Z,13.70
2022-12-31T00:44:29.465Z,13.50
2022-12-31T00:46:58.404Z,13.50
2022-12-31T00:49:26.435Z,13.30
2022-12-31T00:51:57.410Z,13.40
2022-12-31T00:54:31.810Z,13.50
2022-12-31T00:56:59.856Z,13.60
2022-12-31T00:59:27.835Z,13.60
2022-12-31T01:01:57.170Z,14.10
2022-12-31T01:04:32.591Z,14.10
2022-12-31T01:07:01.629Z,14.20
2022-12-31T01:09:35.721Z,14.30
2022-12-31T01:12:04.855Z,14.20
2022-12-31T01:14:40.901Z,13.90
2022-12-31T01:17:09.742Z,13.90
2022-12-31T01:19:46.016Z,13.60
2022-12-31T01:22:14.316Z,13.60
2022-12-31T01:24:44.384Z,13.60
2022-12-31T01:27:12.560Z,13.70
2022-12-31T01:29:40.563Z,13.60
2022-12-31T01:32:09.429Z,13.50
2022-12-31T01:34:40.232Z,13.50
2022-12-31T01:37:08.269Z,13.70
2022-12-31T01:39:36.385Z,13.60
2022-12-31T01:42:08.522Z,13.70
2022-12-31T01:45:00.875Z,13.60
2022-12-31T01:47:38.901Z,13.50
2022-12-31T01:50:16.988Z,13.50
2022-12-31T01:52:56.662Z,13.70
2022-12-31T01:55:29.405Z,13.60
2022-12-31T01:58:06.713Z,13.90
2022-12-31T02:00:35.808Z,13.60
2022-12-31T02:03:06.701Z,13.50
2022-12-31T02:05:42.555Z,13.80
2022-12-31T02:08:12.132Z,13.90
2022-12-31T02:10:44.655Z,13.80
2022-12-31T02:13:15.362Z,13.60
2022-12-31T02:15:54.522Z,13.80
2022-12-31T02:18:32.092Z,13.80
2022-12-31T02:21:28.558Z,14.00
2022-12-31T02:24:37.210Z,13.80
2022-12-31T02:27:13.752Z,13.80
2022-12-31T02:30:16.422Z,13.90
2022-12-31T02:33:08.445Z,13.90
2022-12-31T02:35:49.817Z,14.10
2022-12-31T02:38:23.327Z,14.10
2022-12-31T02:40:56.877Z,14.10
2022-12-31T02:43:27.583Z,14.20
2022-12-31T02:46:14.117Z,14.20
2022-12-31T02:48:48.586Z,14.30
2022-12-31T02:51:33.017Z,14.50
2022-12-31T02:54:19.593Z,14.60
2022-12-31T02:56:57.867Z,14.70
2022-12-31T02:59:50.528Z,14.70
2022-12-31T03:02:25.969Z,14.50
2022-12-31T03:04:57.266Z,14.60
2022-12-31T03:07:29.219Z,14.60
2022-12-31T03:12:47.288Z,14.60
2022-12-31T03:15:23.580Z,14.60
2022-12-31T03:17:56.675Z,14.60
2022-12-31T03:20:45.801Z,14.70
2022-12-31T03:23:22.087Z,14.60
2022-12-31T03:25:51.675Z,14.60
2022-12-31T03:28:26.127Z,14.70
2022-12-31T03:30:57.637Z,14.60
2022-12-31T03:33:34.290Z,14.50
2022-12-31T03:36:05.159Z,14.30
2022-12-31T03:38:33.627Z,14.50
2022-12-31T03:41:17.053Z,14.40
2022-12-31T03:43:48.441Z,14.30
2022-12-31T03:46:18.602Z,14.30
2022-12-31T03:48:50.557Z,14.40
2022-12-31T03:51:18.790Z,14.50
2022-12-31T03:53:46.835Z,14.50
2022-12-31T03:56:15.437Z,14.70
2022-12-31T03:58:43.667Z,14.70
2022-12-31T04:01:12.603Z,14.90
2022-12-31T04:03:40.681Z,14.80
2022-12-31T04:06:10.537Z,14.80
2022-12-31T04:08:40.230Z,15.00
2022-12-31T04:11:08.613Z,14.90
2022-12-31T04:13:36.636Z,14.90
2022-12-31T04:16:12.928Z,14.90
2022-12-31T04:18:41.375Z,15.00
2022-12-31T04:21:13.662Z,15.00
2022-12-31T04:23:44.890Z,15.10
2022-12-31T04:26:13.731Z,15.20
2022-12-31T04:28:41.825Z,15.30
2022-12-31T04:31:11.184Z,15.30
2022-12-31T04:33:39.621Z,15.40
2022-12-31T04:36:11.251Z,15.30
2022-12-31T04:38:39.528Z,15.20
2022-12-31T04:41:27.495Z,15.20
2022-12-31T04:43:57.269Z,15.20
2022-12-31T04:46:28.284Z,15.20
2022-12-31T04:48:59.360Z,15.50
2022-12-31T04:51:31.035Z,15.20
2022-12-31T04:54:01.299Z,15.10
2022-12-31T04:56:31.105Z,15.20
2022-12-31T04:58:59.670Z,15.40
2022-12-31T05:01:30.380Z,15.30
2022-12-31T05:03:59.457Z,15.30
2022-12-31T05:06:29.592Z,15.40
2022-12-31T05:09:00.384Z,15.50
2022-12-31T05:11:28.762Z,15.50
2022-12-31T05:13:56.787Z,15.50
2022-12-31T05:16:25.796Z,15.60
2022-12-31T05:18:56.923Z,15.70
2022-12-31T05:21:25.976Z,15.70
2022-12-31T05:24:15.021Z,15.70
2022-12-31T05:26:43.803Z,15.70
2022-12-31T05:29:14.279Z,15.70
2022-12-31T05:31:42.713Z,15.80
2022-12-31T05:34:18.542Z,15.90
2022-12-31T05:36:49.280Z,15.90
2022-12-31T05:39:21.690Z,15.90
2022-12-31T05:41:50.883Z,16.00
2022-12-31T05:44:19.007Z,16.00
2022-12-31T05:46:50.871Z,16.00
2022-12-31T05:49:18.914Z,16.00
2022-12-31T05:51:49.398Z,16.00
2022-12-31T05:54:20.754Z,16.20
2022-12-31T05:56:50.270Z,16.10
2022-12-31T05:59:18.795Z,16.10
2022-12-31T06:01:46.851Z,16.10
2022-12-31T06:04:15.341Z,16.10
2022-12-31T06:06:45.956Z,16.20
2022-12-31T06:09:16.500Z,16.20
2022-12-31T06:11:48.287Z,16.20
2022-12-31T06:14:18.024Z,16.20
2022-12-31T06:16:46.988Z,16.30
2022-12-31T06:19:15.572Z,16.30
2022-12-31T06:21:43.888Z,16.50
2022-12-31T06:24:11.993Z,16.30
2022-12-31T06:26:50.090Z,16.30
2022-12-31T06:29:22.600Z,16.30
2022-12-31T06:31:53.928Z,16.50
2022-12-31T06:34:21.929Z,16.50
2022-12-31T06:36:50.381Z,16.30
2022-12-31T06:39:19.192Z,16.50
2022-12-31T06:41:49.615Z,16.40
2022-12-31T06:44:23.269Z,16.30
2022-12-31T06:46:51.991Z,16.30
2022-12-31T06:49:20.072Z,16.50
2022-12-31T06:51:48.968Z,16.40
2022-12-31T06:54:16.980Z,16.40
2022-12-31T06:56:46.576Z,16.40
2022-12-31T06:59:30.400Z,16.30
2022-12-31T07:02:09.138Z,16.30
2022-12-31T07:04:59.116Z,16.50
2022-12-31T07:07:36.590Z,16.40
2022-12-31T07:10:29.429Z,16.40
2022-12-31T07:13:28.126Z,16.40
2022-12-31T07:16:10.738Z,16.50
2022-12-31T07:18:51.417Z,16.60
2022-12-31T07:21:30.651Z,16.50
2022-12-31T07:23:59.754Z,16.40
2022-12-31T07:26:54.245Z,16.50
2022-12-31T07:29:44.379Z,16.50
2022-12-31T07:32:27.140Z,16.50
2022-12-31T07:35:05.695Z,16.40
2022-12-31T07:37:46.964Z,16.50
2022-12-31T07:40:24.145Z,16.60
2022-12-31T07:43:05.323Z,16.60
2022-12-31T07:45:43.273Z,16.70
2022-12-31T07:48:25.816Z,16.70
2022-12-31T07:50:57.858Z,16.70
2022-12-31T07:53:27.428Z,16.70
2022-12-31T07:55:58.573Z,16.70
2022-12-31T07:58:40.355Z,16.80
2022-12-31T08:01:12.871Z,16.70
2022-12-31T08:04:06.679Z,16.70
2022-12-31T08:06:42.806Z,16.70
2022-12-31T08:09:25.340Z,16.60
2022-12-31T08:11:58.065Z,16.70
2022-12-31T08:14:30.354Z,16.70
2022-12-31T08:17:07.408Z,16.60
2022-12-31T08:19:40.248Z,16.70
2022-12-31T08:22:23.749Z,16.70
2022-12-31T08:25:04.480Z,16.80
2022-12-31T08:27:42.150Z,16.90
2022-12-31T08:33:07.122Z,16.90
2022-12-31T08:35:57.016Z,16.90
2022-12-31T08:38:35.759Z,16.90
2022-12-31T08:41:15.747Z,16.90
2022-12-31T08:43:55.848Z,16.90
2022-12-31T08:46:30.976Z,17.00
2022-12-31T08:49:00.377Z,16.90
2022-12-31T08:51:30.042Z,16.90
2022-12-31T08:53:59.006Z,17.00
2022-12-31T08:56:33.046Z,17.10
2022-12-31T08:59:22.671Z,16.90
2022-12-31T09:02:16.955Z,16.90
2022-12-31T09:05:05.369Z,17.00
2022-12-31T09:07:38.691Z,17.00
2022-12-31T09:10:18.483Z,17.00
2022-12-31T09:12:55.900Z,17.00
2022-12-31T09:15:31.237Z,17.10
2022-12-31T09:18:02.452Z,17.10
2022-12-31T09:20:44.112Z,17.10
2022-12-31T09:23:15.563Z,17.00
2022-12-31T09:25:57.758Z,17.10
2022-12-31T09:28:37.128Z,17.10
2022-12-31T09:31:15.305Z,17.10
2022-12-31T09:33:52.644Z,17.20
2022-12-31T09:36:31.764Z,17.10
2022-12-31T09:39:11.741Z,17.20
2022-12-31T09:42:13.888Z,17.10
2022-12-31T09:45:21.341Z,17.20
2022-12-31T09:48:33.623Z,17.10
2022-12-31T09:51:20.374Z,17.10
2022-12-31T09:54:21.327Z,17.10
2022-12-31T09:57:00.168Z,17.10
2022-12-31T09:59:37.393Z,17.10
2022-12-31T10:02:23.533Z,17.10
2022-12-31T10:05:19.805Z,17.00
2022-12-31T10:07:54.603Z,17.10
2022-12-31T10:10:35.055Z,17.20
2022-12-31T10:13:32.193Z,17.10
2022-12-31T10:16:26.360Z,17.20
2022-12-31T10:19:16.536Z,17.20
2022-12-31T10:22:02.652Z,17.10
2022-12-31T10:24:58.287Z,17.00
2022-12-31T10:27:44.880Z,17.10
2022-12-31T10:30:17.723Z,17.30
2022-12-31T10:32:56.657Z,17.30
2022-12-31T10:35:34.678Z,17.20
2022-12-31T10:38:16.180Z,17.20
2022-12-31T10:41:19.313Z,17.30
2022-12-31T10:44:18.989Z,17.30
2022-12-31T10:47:20.148Z,17.30
2022-12-31T10:50:12.684Z,17.30
2022-12-31T10:53:28.398Z,17.30
2022-12-31T10:56:14.920Z,17.30
2022-12-31T10:59:02.097Z,17.40
2022-12-31T11:01:49.127Z,17.40
2022-12-31T11:04:55.745Z,17.40
2022-12-31T11:07:43.148Z,17.30
2022-12-31T11:11:04.250Z,17.30
2022-12-31T11:14:11.640Z,17.40
2022-12-31T11:16:54.383Z,17.40
2022-12-31T11:19:40.924Z,17.40
2022-12-31T11:22:31.207Z,17.70
2022-12-31T11:25:24.535Z,17.70
2022-12-31T11:28:18.990Z,17.60
2022-12-31T11:31:05.824Z,17.70
2022-12-31T11:33:54.457Z,17.70
2022-12-31T11:36:34.066Z,17.50
2022-12-31T11:39:30.705Z,17.60
2022-12-31T11:42:03.992Z,17.60
2022-12-31T11:44:48.148Z,17.60
2022-12-31T11:47:30.754Z,17.60
2022-12-31T11:50:29.623Z,17.50
2022-12-31T11:53:25.573Z,17.50
2022-12-31T11:56:17.076Z,17.50
2022-12-31T11:58:48.766Z,17.40
2022-12-31T12:01:25.526Z,17.60
2022-12-31T12:04:09.845Z,17.60
2022-12-31T12:07:09.667Z,17.70
2022-12-31T12:09:40.863Z,17.60
2022-12-31T12:12:09.464Z,17.60
2022-12-31T12:14:39.860Z,17.80
2022-12-31T12:17:12.423Z,17.70
2022-12-31T12:22:52.652Z,17.40
2022-12-31T12:25:33.841Z,17.40
2022-12-31T12:28:20.630Z,17.40
2022-12-31T12:30:56.434Z,17.40
2022-12-31T12:33:25.649Z,17.20
2022-12-31T12:35:53.680Z,17.30
2022-12-31T12:38:25.289Z,17.20
2022-12-31T12:40:57.450Z,17.20
2022-12-31T12:43:28.875Z,17.00
2022-12-31T12:46:01.499Z,17.00
2022-12-31T12:48:41.500Z,17.10
2022-12-31T12:51:22.188Z,16.90
2022-12-31T12:54:06.486Z,16.90
2022-12-31T12:56:43.316Z,16.60
2022-12-31T12:59:36.394Z,16.70
2022-12-31T13:02:18.697Z,16.70
2022-12-31T13:05:03.959Z,16.70
2022-12-31T13:07:49.459Z,16.70
2022-12-31T13:10:37.643Z,16.50
2022-12-31T13:13:24.217Z,16.60
2022-12-31T13:15:59.032Z,16.60
2022-12-31T13:21:34.591Z,16.60
2022-12-31T13:24:10.399Z,16.80
2022-12-31T13:26:48.380Z,16.80
2022-12-31T13:29:21.814Z,16.90
2022-12-31T13:31:52.663Z,17.00
2022-12-31T13:34:25.889Z,17.00
2022-12-31T13:37:00.051Z,17.00
2022-12-31T13:39:41.479Z,16.80
2022-12-31T13:42:15.626Z,16.80
2022-12-31T13:44:51.147Z,16.70
2022-12-31T13:47:30.441Z,16.80
2022-12-31T13:50:08.346Z,16.80
2022-12-31T13:52:48.355Z,16.80
2022-12-31T13:55:21.371Z,16.80
2022-12-31T13:57:55.784Z,16.70
2022-12-31T14:00:27.790Z,16.80
2022-12-31T14:03:04.306Z,16.70
2022-12-31T14:05:38.788Z,16.70
2022-12-31T14:08:13.431Z,16.90
2022-12-31T14:10:50.252Z,16.90
2022-12-31T14:13:36.601Z,16.90
2022-12-31T14:16:19.743Z,16.90
2022-12-31T14:18:57.997Z,17.00
2022-12-31T14:21:32.705Z,16.90
2022-12-31T14:24:07.928Z,16.90
2022-12-31T14:26:42.172Z,17.00
2022-12-31T14:29:24.371Z,16.90
2022-12-31T14:32:17.922Z,16.90
2022-12-31T14:34:56.704Z,17.00
2022-12-31T14:37:34.803Z,16.90
2022-12-31T14:40:15.536Z,16.90
2022-12-31T14:42:54.441Z,16.90
2022-12-31T14:45:31.883Z,17.00
2022-12-31T14:48:10.827Z,16.90
2022-12-31T14:50:43.963Z,16.90
2022-12-31T14:53:22.580Z,16.60
2022-12-31T14:56:05.898Z,16.60
2022-12-31T14:58:39.707Z,16.60
2022-12-31T15:01:22.571Z,16.50
2022-12-31T15:03:51.469Z,16.50
2022-12-31T15:06:39.592Z,16.70
2022-12-31T15:09:23.312Z,16.70
2022-12-31T15:12:05.746Z,16.40
2022-12-31T15:15:02.618Z,16.60
2022-12-31T15:17:43.559Z,16.50
2022-12-31T15:20:44.385Z,16.60
2022-12-31T15:23:22.901Z,16.40
2022-12-31T15:25:59.233Z,16.40
2022-12-31T15:28:38.515Z,16.40
2022-12-31T15:31:18.995Z,16.70
2022-12-31T15:33:59.228Z,16.80
2022-12-31T15:36:31.694Z,16.70
2022-12-31T15:39:25.429Z,16.60
2022-12-31T15:44:49.905Z,16.80
2022-12-31T15:47:30.467Z,16.80
2022-12-31T15:50:06.320Z,16.70
2022-12-31T15:52:41.528Z,16.70
2022-12-31T15:55:22.707Z,16.60
2022-12-31T15:57:53.640Z,16.40
2022-12-31T16:00:24.001Z,16.50
2022-12-31T16:02:55.196Z,16.70
2022-12-31T16:05:26.512Z,16.60
2022-12-31T16:07:55.689Z,16.70
2022-12-31T16:10:27.872Z,16.70
2022-12-31T16:12:57.673Z,16.70
2022-12-31T16:15:38.408Z,16.70
2022-12-31T16:18:18.907Z,16.70
2022-12-31T16:20:54.808Z,16.90
2022-12-31T16:23:27.373Z,16.80
2022-12-31T16:25:59.385Z,17.10
2022-12-31T16:28:33.159Z,16.90
2022-12-31T16:31:04.154Z,16.70
2022-12-31T16:33:34.306Z,16.60
2022-12-31T16:36:25.537Z,16.70
2022-12-31T16:39:06.489Z,16.60
2022-12-31T16:41:45.780Z,16.50
2022-12-31T16:44:26.885Z,16.40
2022-12-31T16:46:58.197Z,16.40
2022-12-31T16:49:29.399Z,16.50
2022-12-31T16:52:03.686Z,16.60
2022-12-31T16:54:38.495Z,16.70
2022-12-31T16:57:13.033Z,16.50
2022-12-31T16:59:46.523Z,16.40
2022-12-31T17:02:22.187Z,16.70
2022-12-31T17:04:56.244Z,16.30
2022-12-31T17:07:43.755Z,16.30
2022-12-31T17:10:24.285Z,16.40
2022-12-31T17:15:49.016Z,16.20
2022-12-31T17:18:29.538Z,16.40
2022-12-31T17:21:10.984Z,16.40
2022-12-31T17:23:41.776Z,16.30
2022-12-31T17:26:13.783Z,16.40
2022-12-31T17:28:45.912Z,16.40
2022-12-31T17:31:35.327Z,16.30
2022-12-31T17:34:24.713Z,16.20
2022-12-31T17:37:14.330Z,16.20
2022-12-31T17:39:49.781Z,16.20
2022-12-31T17:42:31.492Z,16.10
2022-12-31T17:45:04.387Z,16.30
2022-12-31T17:47:38.721Z,16.40
2022-12-31T17:50:17.374Z,16.40
2022-12-31T17:52:48.515Z,16.30
2022-12-31T17:55:18.696Z,16.50
2022-12-31T17:57:52.273Z,16.50
2022-12-31T18:00:22.187Z,16.40
2022-12-31T18:03:01.026Z,16.40
2022-12-31T18:05:31.735Z,16.40
2022-12-31T18:07:59.743Z,16.50
2022-12-31T18:10:32.731Z,16.40
2022-12-31T18:13:04.431Z,16.50
2022-12-31T18:15:32.634Z,16.50
2022-12-31T18:18:00.688Z,16.70
2022-12-31T18:20:29.863Z,16.80
2022-12-31T18:28:11.823Z,16.40
2022-12-31T18:30:40.194Z,16.40
2022-12-31T18:33:11.076Z,16.40
2022-12-31T18:36:07.614Z,16.60
2022-12-31T18:38:28.891Z,16.40
2022-12-31T18:41:00.891Z,16.50
2022-12-31T18:43:29.451Z,16.40
2022-12-31T18:45:57.525Z,16.40
2022-12-31T18:48:25.831Z,16.30
2022-12-31T18:50:54.953Z,16.30
2022-12-31T18:53:24.513Z,16.20
2022-12-31T18:55:54.312Z,16.20
2022-12-31T18:58:27.663Z,16.00
2022-12-31T19:00:55.862Z,16.00
2022-12-31T19:03:30.034Z,16.30
2022-12-31T19:06:00.615Z,16.20
2022-12-31T19:08:29.634Z,16.20
2022-12-31T19:10:57.692Z,16.10
2022-12-31T19:13:27.067Z,16.00
2022-12-31T19:15:57.573Z,16.30
2022-12-31T19:18:25.909Z,16.40
2022-12-31T19:20:53.925Z,16.80
2022-12-31T19:23:23.480Z,16.40
2022-12-31T19:25:51.710Z,16.30
2022-12-31T19:28:23.988Z,16.40
2022-12-31T19:30:56.218Z,16.50
2022-12-31T19:33:24.331Z,16.40
2022-12-31T19:35:55.128Z,16.40
2022-12-31T19:38:29.025Z,16.20
2022-12-31T19:40:57.311Z,16.20
2022-12-31T19:43:25.459Z,16.30
2022-12-31T19:46:03.220Z,16.40
2022-12-31T19:48:33.117Z,16.40
2022-12-31T19:51:01.566Z,16.20
2022-12-31T19:53:29.739Z,16.20
2022-12-31T19:55:57.778Z,16.30
2022-12-31T19:58:28.257Z,16.40
2022-12-31T20:01:02.746Z,16.50
2022-12-31T20:03:33.054Z,16.60
2022-12-31T20:06:03.548Z,16.80
2022-12-31T20:08:32.805Z,16.50
2022-12-31T20:11:08.287Z,16.60
2022-12-31T20:13:36.656Z,16.40
2022-12-31T20:16:10.632Z,16.60
2022-12-31T20:18:40.267Z,16.60
2022-12-31T20:21:12.216Z,16.60
2022-12-31T20:23:40.879Z,16.30
2022-12-31T20:26:08.958Z,16.30
2022-12-31T20:28:37.873Z,16.50
2022-12-31T20:31:08.845Z,16.50
2022-12-31T20:33:37.648Z,16.30
2022-12-31T20:36:07.112Z,16.40
2022-12-31T20:38:38.795Z,16.40
2022-12-31T20:41:09.677Z,16.70
2022-12-31T20:43:38.583Z,16.50
2022-12-31T20:46:15.174Z,16.60
2022-12-31T20:48:47.038Z,16.50
2022-12-31T20:51:17.239Z,16.50
2022-12-31T20:53:49.229Z,16.50
2022-12-31T20:56:18.477Z,16.60
2022-12-31T20:58:46.581Z,16.60
2022-12-31T21:01:18.127Z,16.80
2022-12-31T21:04:06.955Z,16.50
2022-12-31T21:06:36.985Z,16.60
2022-12-31T21:09:08.310Z,16.60
2022-12-31T21:11:54.682Z,16.50
2022-12-31T21:14:23.234Z,16.50
2022-12-31T21:16:52.583Z,16.40
2022-12-31T21:19:21.088Z,16.40
2022-12-31T21:21:49.706Z,16.50
2022-12-31T21:24:23.620Z,16.60
2022-12-31T21:26:56.392Z,16.60
2022-12-31T21:29:26.894Z,16.60
2022-12-31T21:31:58.234Z,16.60
2022-12-31T21:34:26.837Z,16.60
2022-12-31T21:36:54.839Z,16.70
2022-12-31T21:39:23.064Z,16.60
2022-12-31T21:41:54.286Z,16.70
2022-12-31T21:44:24.566Z,16.60
2022-12-31T21:47:33.341Z,16.60
2022-12-31T21:49:46.273Z,16.60
2022-12-31T21:52:27.460Z,16.70
2022-12-31T21:55:13.445Z,16.70
2022-12-31T21:58:23.674Z,16.70
2022-12-31T22:00:48.143Z,16.70
2022-12-31T22:03:27.057Z,16.50
2022-12-31T22:05:59.711Z,16.50
2022-12-31T22:08:29.952Z,16.40
2022-12-31T22:10:58.604Z,16.50
2022-12-31T22:13:26.692Z,16.60
2022-12-31T22:16:04.306Z,16.80
2022-12-31T22:18:35.267Z,16.50
2022-12-31T22:21:12.264Z,16.40
2022-12-31T22:23:47.327Z,16.80
2022-12-31T22:26:17.853Z,16.60
2022-12-31T22:28:47.160Z,16.70
2022-12-31T22:31:17.375Z,16.50
2022-12-31T22:33:45.873Z,16.40
2022-12-31T22:36:19.868Z,16.50
2022-12-31T22:38:48.583Z,16.70
2022-12-31T22:41:19.909Z,16.90
2022-12-31T22:43:49.756Z,16.60
2022-12-31T22:46:20.600Z,16.50
2022-12-31T22:48:49.785Z,16.60
2022-12-31T22:51:21.923Z,16.50
2022-12-31T22:53:50.581Z,16.60
2022-12-31T22:56:22.262Z,16.90
2022-12-31T22:58:51.021Z,16.70
2022-12-31T23:01:21.993Z,16.50
2022-12-31T23:03:52.430Z,16.60
2022-12-31T23:06:25.046Z,16.70
2022-12-31T23:09:12.553Z,16.50
2022-12-31T23:11:43.091Z,16.70
2022-12-31T23:14:34.542Z,16.70
2022-12-31T23:17:31.249Z,16.60
2022-12-31T23:20:18.014Z,16.60
2022-12-31T23:23:05.881Z,16.90
2022-12-31T23:25:35.807Z,16.90
2022-12-31T23:28:04.598Z,16.80
2022-12-31T23:30:41.410Z,16.80
2022-12-31T23:33:13.970Z,16.80
2022-12-31T23:35:43.169Z,17.00
2022-12-31T23:38:18.877Z,16.90
2022-12-31T23:40:50.524Z,16.70
2022-12-31T23:43:21.524Z,16.80
2022-12-31T23:45:51.320Z,16.70
2022-12-31T23:48:19.490Z,16.80
2022-12-31T23:50:53.384Z,16.80
2022-12-31T23:53:24.798Z,16.90
2022-12-31T23:55:53.873Z,17.10
2022-12-31T23:58:22.692Z,16.80
